Terminal Aerodrome Forecast
Issued by NWS New Orleans/Baton Rouge, LA

Home | Current Version | Previous Version | Text Only | Print | Product List | Glossary On
Versions: 1 2 3 4 5 6 7 8 9 10 11 12 13 14 15 16 17 18 19 20 21 22 23 24
000
FTUS44 KLIX 311729
TAFNEW
TAF
KNEW 311729Z 3118/0118 03005KT P6SM FEW025
     FM312200 14006KT P6SM FEW110 SCT250
     FM011000 27004KT P6SM FEW200
     FM011400 35006KT P6SM FEW140=

USA.gov is the U.S. government's official web portal to all federal, state and local government web resources and services.